createdAt,value
2018-07-17T00:01:55.496Z,60.20
2018-07-17T00:03:57.467Z,61.00
2018-07-17T00:05:59.461Z,60.10
2018-07-17T00:08:01.431Z,60.20
2018-07-17T00:10:03.398Z,60.20
2018-07-17T00:12:05.378Z,60.10
2018-07-17T00:14:07.349Z,60.20
2018-07-17T00:16:09.329Z,60.20
2018-07-17T00:18:11.323Z,60.20
2018-07-17T00:20:13.269Z,60.20
2018-07-17T00:22:15.257Z,60.20
2018-07-17T00:24:17.226Z,60.20
2018-07-17T00:26:19.184Z,60.20
2018-07-17T00:28:21.172Z,60.20
2018-07-17T00:30:23.134Z,60.20
2018-07-17T00:32:25.126Z,60.20
2018-07-17T00:34:27.081Z,60.20
2018-07-17T00:36:29.067Z,60.50
2018-07-17T00:38:31.047Z,60.20
2018-07-17T00:40:33.004Z,60.20
2018-07-17T00:42:34.980Z,60.20
2018-07-17T00:44:36.977Z,60.20
2018-07-17T00:46:38.954Z,60.20
2018-07-17T00:48:40.928Z,60.20
2018-07-17T00:50:42.886Z,60.20
2018-07-17T00:52:44.849Z,60.20
2018-07-17T00:54:46.829Z,60.20
2018-07-17T00:56:48.792Z,60.20
2018-07-17T00:58:50.790Z,60.60
2018-07-17T01:02:55.002Z,60.20
2018-07-17T01:04:56.979Z,60.20
2018-07-17T01:06:58.961Z,60.20
2018-07-17T01:09:00.933Z,60.20
2018-07-17T01:11:02.893Z,60.20
2018-07-17T01:13:04.869Z,60.20
2018-07-17T01:15:06.842Z,60.20
2018-07-17T01:17:08.797Z,60.20
2018-07-17T01:19:10.764Z,60.30
2018-07-17T01:21:12.762Z,60.20
2018-07-17T01:23:14.731Z,60.20
2018-07-17T01:25:16.721Z,60.20
2018-07-17T01:27:18.696Z,60.20
2018-07-17T01:29:20.666Z,60.20
2018-07-17T01:31:22.636Z,60.20
2018-07-17T01:33:24.594Z,60.20
2018-07-17T01:35:26.587Z,60.20
2018-07-17T01:37:28.550Z,60.20
2018-07-17T01:39:30.504Z,60.20
2018-07-17T01:41:32.474Z,60.30
2018-07-17T01:43:34.427Z,60.50
2018-07-17T01:45:36.396Z,60.20
2018-07-17T01:47:38.363Z,60.20
2018-07-17T01:49:40.327Z,60.20
2018-07-17T01:51:42.314Z,60.20
2018-07-17T01:53:44.260Z,60.20
2018-07-17T01:55:46.254Z,60.20
2018-07-17T01:57:48.226Z,60.20
2018-07-17T01:59:50.223Z,60.20
2018-07-17T02:01:52.202Z,60.20
2018-07-17T02:03:54.180Z,60.20
2018-07-17T02:05:56.134Z,60.20
2018-07-17T02:07:58.116Z,60.20
2018-07-17T02:10:00.092Z,60.20
2018-07-17T02:12:02.116Z,60.20
2018-07-17T02:14:04.091Z,60.20
2018-07-17T02:18:08.305Z,60.30
2018-07-17T02:20:10.272Z,60.20
2018-07-17T02:22:12.228Z,60.20
2018-07-17T02:24:14.200Z,60.20
2018-07-17T02:26:16.172Z,60.20
2018-07-17T02:28:18.144Z,60.20
2018-07-17T02:30:20.114Z,60.20
2018-07-17T02:32:22.073Z,60.20
2018-07-17T02:34:24.089Z,60.20
2018-07-17T02:36:26.065Z,60.20
2018-07-17T02:38:28.043Z,60.20
2018-07-17T02:40:30.018Z,60.20
2018-07-17T02:42:31.991Z,60.20
2018-07-17T02:44:33.946Z,60.20
2018-07-17T02:46:35.923Z,60.20
2018-07-17T02:48:37.868Z,60.20
2018-07-17T02:52:42.065Z,61.30
2018-07-17T02:54:44.029Z,60.20
2018-07-17T02:56:45.991Z,60.20
2018-07-17T02:58:47.963Z,60.30
2018-07-17T03:00:49.949Z,60.20
2018-07-17T03:02:51.919Z,60.20
2018-07-17T03:04:53.891Z,60.20
2018-07-17T03:06:55.889Z,60.20
2018-07-17T03:08:57.836Z,60.20
2018-07-17T03:10:59.845Z,60.20
2018-07-17T03:13:01.817Z,60.20
2018-07-17T03:15:03.781Z,60.20
2018-07-17T03:17:05.751Z,60.20
2018-07-17T03:19:07.715Z,60.20
2018-07-17T03:21:09.685Z,60.20
2018-07-17T03:23:11.667Z,60.20
2018-07-17T03:25:13.616Z,60.20
2018-07-17T03:27:15.591Z,60.20
2018-07-17T03:29:17.551Z,60.20
2018-07-17T03:31:19.517Z,60.20
2018-07-17T03:33:21.491Z,60.20
2018-07-17T03:35:23.467Z,60.20
2018-07-17T03:37:25.420Z,60.20
2018-07-17T03:39:27.407Z,60.20
2018-07-17T03:41:29.363Z,61.10
2018-07-17T03:43:31.345Z,60.20
2018-07-17T03:45:33.313Z,60.20
2018-07-17T03:47:35.282Z,60.20
2018-07-17T03:49:37.259Z,60.20
2018-07-17T03:51:39.225Z,60.20
2018-07-17T03:53:41.199Z,60.20
2018-07-17T03:55:43.151Z,60.20
2018-07-17T03:57:45.115Z,60.20
2018-07-17T03:59:47.091Z,60.80
2018-07-17T04:01:49.062Z,60.20
2018-07-17T04:03:51.037Z,60.20
2018-07-17T04:05:53.025Z,60.20
2018-07-17T04:07:54.988Z,60.20
2018-07-17T04:09:56.987Z,60.20
2018-07-17T04:11:58.959Z,60.20
2018-07-17T04:14:00.919Z,60.20
2018-07-17T04:16:02.896Z,60.20
2018-07-17T04:18:04.865Z,60.20
2018-07-17T04:20:06.843Z,60.20
2018-07-17T04:22:08.797Z,60.20
2018-07-17T04:24:10.773Z,60.20
2018-07-17T04:26:12.749Z,60.20
2018-07-17T04:28:14.705Z,60.20
2018-07-17T04:30:16.691Z,60.20
2018-07-17T04:32:18.658Z,60.20
2018-07-17T04:34:20.619Z,60.20
2018-07-17T04:36:22.608Z,60.20
2018-07-17T04:38:24.555Z,60.20
2018-07-17T04:40:26.527Z,60.20
2018-07-17T04:42:28.491Z,60.20
2018-07-17T04:44:30.456Z,60.20
2018-07-17T04:46:32.440Z,60.20
2018-07-17T04:48:34.405Z,60.20
2018-07-17T04:50:36.363Z,60.20
2018-07-17T04:52:38.340Z,60.20
2018-07-17T04:54:40.305Z,60.20
2018-07-17T04:56:42.291Z,60.20
2018-07-17T04:58:44.243Z,60.20
2018-07-17T05:00:46.235Z,60.20
2018-07-17T05:02:48.195Z,60.20
2018-07-17T05:04:50.184Z,60.20
2018-07-17T05:06:52.149Z,60.20
2018-07-17T05:08:54.109Z,60.20
2018-07-17T05:10:56.092Z,60.20
2018-07-17T05:12:58.081Z,60.20
2018-07-17T05:15:00.048Z,60.20
2018-07-17T05:17:02.018Z,60.20
2018-07-17T05:19:03.985Z,60.20
2018-07-17T05:21:05.956Z,60.20
2018-07-17T05:23:07.920Z,60.20
2018-07-17T05:25:09.891Z,60.20
2018-07-17T05:27:11.859Z,60.20
2018-07-17T05:29:13.801Z,60.20
2018-07-17T05:31:15.773Z,60.20
2018-07-17T05:33:17.732Z,60.20
2018-07-17T05:35:19.728Z,60.20
2018-07-17T05:37:21.683Z,60.20
2018-07-17T05:39:23.665Z,60.20
2018-07-17T05:41:25.632Z,60.20
2018-07-17T05:43:27.602Z,60.20
2018-07-17T05:45:29.600Z,60.20
2018-07-17T05:47:31.573Z,60.20
2018-07-17T05:49:33.540Z,60.20
2018-07-17T05:51:35.522Z,60.20
2018-07-17T05:53:37.490Z,60.20
2018-07-17T05:55:39.466Z,60.30
2018-07-17T05:57:41.458Z,60.40
2018-07-17T05:59:43.421Z,60.50
2018-07-17T06:01:45.430Z,60.50
2018-07-17T06:03:47.380Z,60.50
2018-07-17T06:05:49.340Z,60.50
2018-07-17T06:07:51.325Z,60.50
2018-07-17T06:09:53.287Z,60.60
2018-07-17T06:11:55.268Z,60.60
2018-07-17T06:13:57.232Z,60.60
2018-07-17T06:15:59.230Z,60.50
2018-07-17T06:18:01.205Z,60.50
2018-07-17T06:20:03.165Z,60.50
2018-07-17T06:22:05.127Z,60.50
2018-07-17T06:24:07.085Z,60.50
2018-07-17T06:26:09.053Z,60.50
2018-07-17T06:28:11.033Z,60.50
2018-07-17T06:30:13.006Z,60.50
2018-07-17T06:32:14.967Z,61.50
2018-07-17T06:34:16.931Z,60.50
2018-07-17T06:36:18.910Z,60.50
2018-07-17T06:38:20.892Z,60.50
2018-07-17T06:40:22.858Z,61.30
2018-07-17T06:42:24.816Z,60.50
2018-07-17T06:44:26.792Z,60.40
2018-07-17T06:46:28.760Z,60.40
2018-07-17T06:48:30.751Z,60.40
2018-07-17T06:50:32.859Z,61.20
2018-07-17T06:52:34.703Z,60.30
2018-07-17T06:54:36.673Z,60.30
2018-07-17T06:56:38.632Z,60.40
2018-07-17T06:58:40.619Z,60.40
2018-07-17T07:00:42.590Z,60.40
2018-07-17T07:02:44.557Z,60.40
2018-07-17T07:04:46.548Z,60.40
2018-07-17T07:06:48.517Z,60.40
2018-07-17T07:08:50.479Z,60.40
2018-07-17T07:10:52.460Z,60.40
2018-07-17T07:12:54.429Z,60.30
2018-07-17T07:14:56.395Z,60.30
2018-07-17T07:16:58.344Z,60.20
2018-07-17T07:19:00.341Z,60.30
2018-07-17T07:21:02.330Z,60.20
2018-07-17T07:23:04.295Z,60.20
2018-07-17T07:25:06.321Z,60.20
2018-07-17T07:29:10.521Z,60.20
2018-07-17T07:31:12.511Z,60.20
2018-07-17T07:33:14.469Z,60.20
2018-07-17T07:35:16.460Z,60.20
2018-07-17T07:37:18.464Z,60.20
2018-07-17T07:39:20.390Z,60.20
2018-07-17T07:41:22.359Z,60.20
2018-07-17T07:43:24.329Z,60.20
2018-07-17T07:45:26.293Z,60.30
2018-07-17T07:47:28.250Z,60.10
2018-07-17T07:49:30.231Z,60.20
2018-07-17T07:51:32.213Z,60.10
2018-07-17T07:53:34.184Z,60.10
2018-07-17T07:55:36.179Z,60.10
2018-07-17T07:57:38.508Z,60.10
2018-07-17T07:59:40.471Z,60.10
2018-07-17T08:01:42.443Z,60.30
2018-07-17T08:03:44.479Z,60.10
2018-07-17T08:05:46.383Z,60.10
2018-07-17T08:07:48.370Z,60.00
2018-07-17T08:09:50.364Z,60.00
2018-07-17T08:11:52.398Z,60.00
2018-07-17T08:13:54.319Z,60.00
2018-07-17T08:15:56.285Z,60.00
2018-07-17T08:17:58.265Z,60.00
2018-07-17T08:20:00.224Z,60.00
2018-07-17T08:22:02.232Z,60.00
2018-07-17T08:24:04.195Z,59.90
2018-07-17T08:26:06.155Z,59.90
2018-07-17T08:28:08.130Z,59.90
2018-07-17T08:32:13.029Z,59.90
2018-07-17T08:34:14.997Z,59.90
2018-07-17T08:38:19.211Z,59.90
2018-07-17T08:40:21.181Z,59.90
2018-07-17T08:42:23.157Z,59.90
2018-07-17T08:44:25.167Z,59.80
2018-07-17T08:46:27.110Z,59.90
2018-07-17T08:48:29.080Z,59.90
2018-07-17T08:50:31.050Z,59.90
2018-07-17T08:52:33.035Z,59.90
2018-07-17T08:54:35.080Z,60.60
2018-07-17T08:56:36.970Z,60.40
2018-07-17T08:58:39.221Z,59.90
2018-07-17T09:00:41.223Z,59.90
2018-07-17T09:02:43.200Z,59.80
2018-07-17T09:04:45.156Z,59.90
2018-07-17T09:06:47.139Z,59.80
2018-07-17T09:08:49.108Z,59.80
2018-07-17T09:10:51.084Z,59.80
2018-07-17T09:12:53.075Z,59.80
2018-07-17T09:14:55.037Z,59.80
2018-07-17T09:18:59.269Z,59.80
2018-07-17T09:21:01.214Z,59.80
2018-07-17T09:23:03.203Z,59.80
2018-07-17T09:25:05.187Z,59.80
2018-07-17T09:27:07.152Z,59.70
2018-07-17T09:29:09.131Z,59.80
2018-07-17T09:31:11.088Z,59.80
2018-07-17T09:33:13.072Z,59.70
2018-07-17T09:35:15.045Z,59.70
2018-07-17T09:37:17.023Z,59.70
2018-07-17T09:39:19.074Z,59.70
2018-07-17T09:41:21.039Z,59.70
2018-07-17T09:43:23.017Z,59.70
2018-07-17T09:45:24.981Z,59.70
2018-07-17T09:47:26.965Z,59.70
2018-07-17T09:49:28.953Z,59.70
2018-07-17T09:51:30.905Z,59.70
2018-07-17T09:53:32.885Z,59.70
2018-07-17T09:55:34.848Z,59.60
2018-07-17T09:57:36.815Z,59.70
2018-07-17T09:59:38.791Z,59.70
2018-07-17T10:01:40.765Z,59.60
2018-07-17T10:03:42.765Z,59.60
2018-07-17T10:05:44.723Z,59.60
2018-07-17T10:07:46.691Z,59.60
2018-07-17T10:09:48.662Z,59.60
2018-07-17T10:11:50.629Z,59.50
2018-07-17T10:13:52.610Z,59.50
2018-07-17T10:15:54.575Z,59.50
2018-07-17T10:17:56.566Z,59.50
2018-07-17T10:19:58.555Z,59.50
2018-07-17T10:22:00.511Z,59.60
2018-07-17T10:24:02.502Z,59.60
2018-07-17T10:26:04.474Z,59.60
2018-07-17T10:28:06.460Z,59.60
2018-07-17T10:30:08.439Z,59.60
2018-07-17T10:32:10.458Z,59.60
2018-07-17T10:34:12.377Z,59.60
2018-07-17T10:36:14.364Z,59.50
2018-07-17T10:38:16.336Z,59.50
2018-07-17T10:40:18.314Z,59.50
2018-07-17T10:42:20.270Z,59.40
2018-07-17T10:44:22.230Z,59.40
2018-07-17T10:46:24.201Z,59.40
2018-07-17T10:48:26.178Z,59.40
2018-07-17T10:50:28.143Z,59.40
2018-07-17T10:52:30.102Z,59.50
2018-07-17T10:54:32.064Z,59.40
2018-07-17T10:56:34.025Z,59.40
2018-07-17T10:58:36.004Z,59.40
2018-07-17T11:00:37.979Z,59.40
2018-07-17T11:02:39.941Z,59.40
2018-07-17T11:04:41.904Z,59.40
2018-07-17T11:06:43.898Z,59.40
2018-07-17T11:10:48.108Z,59.40
2018-07-17T11:12:50.077Z,59.30
2018-07-17T11:14:52.032Z,59.30
2018-07-17T11:16:54.004Z,59.40
2018-07-17T11:18:56.873Z,59.30
2018-07-17T11:20:58.844Z,59.30
2018-07-17T11:23:00.801Z,59.20
2018-07-17T11:25:02.770Z,59.30
2018-07-17T11:27:04.725Z,59.20
2018-07-17T11:29:06.726Z,59.30
2018-07-17T11:33:10.928Z,59.30
2018-07-17T11:35:12.884Z,59.20
2018-07-17T11:37:14.849Z,59.20
2018-07-17T11:39:16.820Z,59.20
2018-07-17T11:41:18.798Z,59.20
2018-07-17T11:43:20.768Z,59.20
2018-07-17T11:45:22.727Z,59.10
2018-07-17T11:47:24.701Z,59.10
2018-07-17T11:49:26.683Z,59.10
2018-07-17T11:51:28.649Z,59.00
2018-07-17T11:53:30.609Z,59.00
2018-07-17T11:55:32.566Z,59.00
2018-07-17T11:57:34.558Z,59.00
2018-07-17T11:59:36.638Z,59.10
2018-07-17T12:01:38.513Z,59.10
2018-07-17T12:03:40.492Z,59.10
2018-07-17T12:05:42.445Z,59.00
2018-07-17T12:07:44.446Z,59.10
2018-07-17T12:09:46.401Z,59.00
2018-07-17T12:11:48.371Z,59.00
2018-07-17T12:13:50.345Z,59.00
2018-07-17T12:15:52.313Z,59.00
2018-07-17T12:17:54.275Z,58.90
2018-07-17T12:19:56.272Z,58.90
2018-07-17T12:21:58.203Z,58.90
2018-07-17T12:24:00.168Z,58.90
2018-07-17T12:26:02.166Z,58.90
2018-07-17T12:28:04.223Z,58.90
2018-07-17T12:30:06.120Z,58.90
2018-07-17T12:32:08.088Z,58.90
2018-07-17T12:34:10.058Z,59.00
2018-07-17T12:36:12.038Z,59.00
2018-07-17T12:38:14.006Z,58.90
2018-07-17T12:40:15.982Z,58.90
2018-07-17T12:42:17.942Z,58.90
2018-07-17T12:44:19.980Z,58.90
2018-07-17T12:46:21.896Z,58.90
2018-07-17T12:48:23.864Z,58.90
2018-07-17T12:50:25.837Z,58.90
2018-07-17T12:52:27.799Z,58.90
2018-07-17T12:54:29.772Z,58.90
2018-07-17T12:56:31.734Z,58.90
2018-07-17T12:58:33.742Z,58.90
2018-07-17T13:00:35.703Z,58.90
2018-07-17T13:02:37.695Z,58.90
2018-07-17T13:04:39.658Z,59.00
2018-07-17T13:06:41.640Z,58.90
2018-07-17T13:08:43.615Z,58.90
2018-07-17T13:12:47.823Z,58.90
2018-07-17T13:14:49.779Z,58.90
2018-07-17T13:16:51.761Z,58.90
2018-07-17T13:18:53.711Z,58.90
2018-07-17T13:20:55.672Z,58.90
2018-07-17T13:22:57.650Z,58.90
2018-07-17T13:24:59.624Z,58.90
2018-07-17T13:27:01.600Z,58.90
2018-07-17T13:29:03.577Z,58.90
2018-07-17T13:31:05.557Z,58.90
2018-07-17T13:33:07.533Z,58.90
2018-07-17T13:35:09.504Z,58.90
2018-07-17T13:37:11.488Z,59.00
2018-07-17T13:39:13.479Z,59.00
2018-07-17T13:41:15.842Z,58.90
2018-07-17T13:43:17.818Z,58.90
2018-07-17T13:45:19.783Z,58.90
2018-07-17T13:47:21.757Z,59.00
2018-07-17T13:49:23.716Z,59.00
2018-07-17T13:51:25.691Z,58.90
2018-07-17T13:53:27.659Z,58.90
2018-07-17T13:55:29.734Z,58.90
2018-07-17T13:57:31.684Z,58.90
2018-07-17T13:59:33.619Z,58.90
2018-07-17T14:03:37.840Z,58.40
2018-07-17T14:05:39.814Z,58.90
2018-07-17T14:07:41.785Z,59.00
2018-07-17T14:09:43.769Z,58.90
2018-07-17T14:11:45.737Z,58.90
2018-07-17T14:13:47.704Z,58.90
2018-07-17T14:15:49.693Z,59.00
2018-07-17T14:17:51.662Z,58.90
2018-07-17T14:19:53.625Z,58.90
2018-07-17T14:21:55.598Z,58.90
2018-07-17T14:23:57.582Z,59.00
2018-07-17T14:25:59.558Z,58.90
2018-07-17T14:28:01.525Z,58.90
2018-07-17T14:30:03.533Z,59.00
2018-07-17T14:32:05.521Z,58.90
2018-07-17T14:34:07.488Z,59.00
2018-07-17T14:36:09.480Z,58.90
2018-07-17T14:38:11.437Z,58.90
2018-07-17T14:40:13.412Z,58.90
2018-07-17T14:42:15.384Z,59.00
2018-07-17T14:44:17.338Z,59.00
2018-07-17T14:46:19.323Z,59.00
2018-07-17T14:48:21.387Z,59.00
2018-07-17T14:50:23.665Z,59.00
2018-07-17T14:52:25.628Z,58.90
2018-07-17T14:54:27.603Z,59.00
2018-07-17T14:56:29.590Z,58.90
2018-07-17T14:58:31.555Z,58.90
2018-07-17T15:00:33.534Z,58.90
2018-07-17T15:02:35.496Z,58.90
2018-07-17T15:04:37.469Z,58.90
2018-07-17T15:06:39.457Z,58.90
2018-07-17T15:08:41.441Z,58.90
2018-07-17T15:10:43.419Z,58.90
2018-07-17T15:12:45.406Z,59.00
2018-07-17T15:14:47.368Z,59.00
2018-07-17T15:18:51.564Z,59.00
2018-07-17T15:20:53.563Z,58.90
2018-07-17T15:22:55.536Z,58.90
2018-07-17T15:24:57.498Z,59.00
2018-07-17T15:26:59.481Z,59.00
2018-07-17T15:29:01.455Z,59.00
2018-07-17T15:31:03.433Z,59.10
2018-07-17T15:33:05.404Z,59.10
2018-07-17T15:35:07.406Z,59.00
2018-07-17T15:37:09.352Z,59.00
2018-07-17T15:39:11.339Z,59.10
2018-07-17T15:41:13.306Z,59.10
2018-07-17T15:43:15.278Z,59.00
2018-07-17T15:45:17.283Z,59.00
2018-07-17T15:47:19.442Z,59.00
2018-07-17T15:49:21.405Z,59.10
2018-07-17T15:51:23.377Z,59.10
2018-07-17T15:53:25.356Z,59.10
2018-07-17T15:55:27.321Z,59.10
2018-07-17T15:57:29.297Z,59.10
2018-07-17T15:59:31.266Z,59.10
2018-07-17T16:01:33.241Z,59.10
2018-07-17T16:03:35.211Z,59.10
2018-07-17T16:05:37.170Z,59.20
2018-07-17T16:07:39.133Z,59.20
2018-07-17T16:09:41.141Z,59.20
2018-07-17T16:11:43.121Z,59.20
2018-07-17T16:13:45.221Z,59.90
2018-07-17T16:15:47.069Z,59.20
2018-07-17T16:17:49.031Z,59.20
2018-07-17T16:19:51.014Z,59.20
2018-07-17T16:21:52.986Z,59.20
2018-07-17T16:23:54.962Z,59.10
2018-07-17T16:25:56.930Z,59.20
2018-07-17T16:27:58.907Z,59.20
2018-07-17T16:30:00.895Z,59.30
2018-07-17T16:32:02.871Z,59.20
2018-07-17T16:34:04.832Z,59.20
2018-07-17T16:36:06.796Z,59.20
2018-07-17T16:38:08.761Z,59.20
2018-07-17T16:40:10.744Z,59.20
2018-07-17T16:42:12.780Z,59.20
2018-07-17T16:44:14.710Z,59.20
2018-07-17T16:46:16.663Z,59.20
2018-07-17T16:48:18.638Z,59.20
2018-07-17T16:50:20.621Z,59.20
2018-07-17T16:52:22.597Z,59.10
2018-07-17T16:54:24.560Z,59.10
2018-07-17T16:56:26.550Z,59.10
2018-07-17T16:58:28.499Z,59.10
2018-07-17T17:00:30.490Z,59.10
2018-07-17T17:02:32.479Z,59.00
2018-07-17T17:04:34.437Z,59.00
2018-07-17T17:06:36.421Z,59.00
2018-07-17T17:08:38.407Z,59.10
2018-07-17T17:10:40.357Z,59.10
2018-07-17T17:12:42.335Z,59.10
2018-07-17T17:14:44.344Z,59.10
2018-07-17T17:16:46.314Z,59.10
2018-07-17T17:18:48.278Z,59.20
2018-07-17T17:20:50.280Z,59.10
2018-07-17T17:22:52.607Z,59.10
2018-07-17T17:24:54.569Z,59.10
2018-07-17T17:26:56.561Z,59.10
2018-07-17T17:28:58.531Z,59.20
2018-07-17T17:31:00.536Z,59.10
2018-07-17T17:33:02.510Z,59.20
2018-07-17T17:35:04.483Z,59.10
2018-07-17T17:37:06.483Z,59.20
2018-07-17T17:39:08.449Z,59.20
2018-07-17T17:41:10.415Z,59.10
2018-07-17T17:43:12.427Z,59.10
2018-07-17T17:45:14.390Z,59.10
2018-07-17T17:49:18.584Z,59.20
2018-07-17T17:51:20.575Z,59.20
2018-07-17T17:53:22.543Z,59.20
2018-07-17T17:55:24.502Z,59.20
2018-07-17T17:57:26.494Z,59.10
2018-07-17T17:59:28.444Z,59.20
2018-07-17T18:01:30.413Z,59.20
2018-07-17T18:03:32.404Z,59.20
2018-07-17T18:05:34.369Z,59.20
2018-07-17T18:07:36.340Z,59.20
2018-07-17T18:09:38.343Z,59.20
2018-07-17T18:11:40.301Z,59.20
2018-07-17T18:13:42.290Z,59.30
2018-07-17T18:15:44.282Z,59.30
2018-07-17T18:17:46.240Z,59.30
2018-07-17T18:19:48.230Z,59.30
2018-07-17T18:21:50.185Z,59.30
2018-07-17T18:23:52.169Z,59.30
2018-07-17T18:25:54.154Z,59.30
2018-07-17T18:27:56.128Z,59.30
2018-07-17T18:29:58.109Z,59.30
2018-07-17T18:32:00.075Z,60.00
2018-07-17T18:34:02.068Z,59.30
2018-07-17T18:36:04.036Z,59.30
2018-07-17T18:38:05.995Z,59.30
2018-07-17T18:40:07.978Z,59.20
2018-07-17T18:42:09.995Z,59.30
2018-07-17T18:44:11.956Z,59.30
2018-07-17T18:46:13.916Z,59.80
2018-07-17T18:48:15.893Z,59.30
2018-07-17T18:50:17.870Z,59.30
2018-07-17T18:52:19.907Z,59.30
2018-07-17T18:54:21.817Z,59.30
2018-07-17T18:56:23.804Z,59.30
2018-07-17T18:58:25.778Z,59.40
2018-07-17T19:00:28.066Z,59.40
2018-07-17T19:02:30.036Z,59.40
2018-07-17T19:04:32.011Z,59.40
2018-07-17T19:06:33.998Z,59.40
2018-07-17T19:08:35.945Z,59.40
2018-07-17T19:10:37.911Z,59.40
2018-07-17T19:12:39.878Z,59.40
2018-07-17T19:14:41.882Z,59.40
2018-07-17T19:16:43.859Z,59.30
2018-07-17T19:18:45.814Z,59.30
2018-07-17T19:20:47.809Z,59.30
2018-07-17T19:22:49.770Z,59.30
2018-07-17T19:24:51.750Z,59.30
2018-07-17T19:26:53.712Z,59.30
2018-07-17T19:28:55.679Z,59.30
2018-07-17T19:30:57.655Z,59.30
2018-07-17T19:32:59.595Z,59.30
2018-07-17T19:35:01.583Z,59.30
2018-07-17T19:37:03.549Z,59.30
2018-07-17T19:39:05.533Z,59.30
2018-07-17T19:41:07.568Z,59.30
2018-07-17T19:43:09.513Z,59.30
2018-07-17T19:45:11.489Z,59.30
2018-07-17T19:47:13.458Z,59.30
2018-07-17T19:49:15.427Z,59.30
2018-07-17T19:51:17.425Z,59.30
2018-07-17T19:55:21.719Z,59.30
2018-07-17T19:57:23.716Z,59.30
2018-07-17T19:59:25.700Z,59.30
2018-07-17T20:01:27.641Z,59.20
2018-07-17T20:03:29.625Z,59.30
2018-07-17T20:05:31.586Z,59.30
2018-07-17T20:07:33.583Z,59.30
2018-07-17T20:09:35.560Z,59.30
2018-07-17T20:11:37.540Z,59.30
2018-07-17T20:13:39.520Z,59.30
2018-07-17T20:15:41.488Z,59.30
2018-07-17T20:17:43.461Z,59.30
2018-07-17T20:19:45.427Z,59.30
2018-07-17T20:21:47.424Z,59.30
2018-07-17T20:23:49.363Z,59.30
2018-07-17T20:25:51.344Z,59.30
2018-07-17T20:27:53.312Z,59.30
2018-07-17T20:29:55.286Z,59.30
2018-07-17T20:31:57.249Z,59.30
2018-07-17T20:33:59.210Z,59.30
2018-07-17T20:36:01.197Z,59.50
2018-07-17T20:38:03.182Z,59.40
2018-07-17T20:40:05.161Z,59.30
2018-07-17T20:42:07.138Z,59.30
2018-07-17T20:44:09.101Z,59.40
2018-07-17T20:46:11.082Z,59.30
2018-07-17T20:48:13.059Z,59.40
2018-07-17T20:50:15.014Z,59.30
2018-07-17T20:52:17.085Z,60.00
2018-07-17T20:54:19.020Z,59.40
2018-07-17T20:56:21.033Z,59.50
2018-07-17T20:58:22.992Z,59.50
2018-07-17T21:00:24.957Z,59.50
2018-07-17T21:02:26.931Z,59.40
2018-07-17T21:04:28.933Z,59.40
2018-07-17T21:06:30.897Z,59.40
2018-07-17T21:08:32.884Z,59.40
2018-07-17T21:10:34.854Z,59.40
2018-07-17T21:12:36.834Z,59.50
2018-07-17T21:14:38.804Z,59.50
2018-07-17T21:16:41.089Z,59.50
2018-07-17T21:18:43.062Z,59.50
2018-07-17T21:20:45.014Z,59.40
2018-07-17T21:22:46.971Z,59.50
2018-07-17T21:24:48.946Z,59.50
2018-07-17T21:26:50.911Z,59.60
2018-07-17T21:28:52.886Z,59.50
2018-07-17T21:30:54.896Z,59.50
2018-07-17T21:32:56.866Z,59.50
2018-07-17T21:34:58.834Z,59.60
2018-07-17T21:37:00.794Z,59.50
2018-07-17T21:39:02.768Z,59.50
2018-07-17T21:41:04.726Z,59.50
2018-07-17T21:43:06.686Z,59.60
2018-07-17T21:45:08.662Z,59.60
2018-07-17T21:47:10.631Z,58.90
2018-07-17T21:49:12.606Z,59.80
2018-07-17T21:51:14.558Z,59.60
2018-07-17T21:53:16.512Z,59.60
2018-07-17T21:55:18.484Z,59.50
2018-07-17T21:57:20.448Z,59.60
2018-07-17T21:59:22.397Z,59.60
2018-07-17T22:01:24.389Z,59.60
2018-07-17T22:03:26.372Z,59.60
2018-07-17T22:05:28.410Z,59.60
2018-07-17T22:07:30.314Z,59.50
2018-07-17T22:09:32.273Z,59.60
2018-07-17T22:11:34.261Z,59.60
2018-07-17T22:13:36.217Z,59.60
2018-07-17T22:15:38.157Z,59.60
2018-07-17T22:17:40.139Z,59.70
2018-07-17T22:19:42.100Z,59.60
2018-07-17T22:21:44.076Z,59.70
2018-07-17T22:23:46.030Z,59.70
2018-07-17T22:25:48.003Z,59.60
2018-07-17T22:27:50.000Z,59.60
2018-07-17T22:29:51.946Z,59.70
2018-07-17T22:31:53.900Z,59.60
2018-07-17T22:33:55.873Z,59.70
2018-07-17T22:35:57.834Z,59.60
2018-07-17T22:37:59.801Z,59.70
2018-07-17T22:40:01.772Z,59.70
2018-07-17T22:42:03.748Z,59.70
2018-07-17T22:44:05.701Z,59.70
2018-07-17T22:46:07.663Z,59.60
2018-07-17T22:48:09.634Z,59.70
2018-07-17T22:50:11.593Z,59.70
2018-07-17T22:52:13.557Z,59.70
2018-07-17T22:54:15.536Z,59.70
2018-07-17T22:56:17.489Z,59.70
2018-07-17T22:58:19.465Z,59.70
2018-07-17T23:00:21.427Z,59.70
2018-07-17T23:02:23.395Z,59.70
2018-07-17T23:04:25.373Z,59.70
2018-07-17T23:06:27.327Z,59.70
2018-07-17T23:08:29.286Z,59.70
2018-07-17T23:10:31.249Z,59.70
2018-07-17T23:12:33.213Z,59.70
2018-07-17T23:14:35.167Z,59.80
2018-07-17T23:16:37.151Z,59.80
2018-07-17T23:18:39.103Z,59.80
2018-07-17T23:20:41.057Z,59.80
2018-07-17T23:22:43.031Z,59.80
2018-07-17T23:24:44.983Z,59.80
2018-07-17T23:26:46.948Z,59.80
2018-07-17T23:28:48.940Z,59.80
2018-07-17T23:30:50.905Z,59.80
2018-07-17T23:32:52.862Z,59.80
2018-07-17T23:34:54.846Z,59.80
2018-07-17T23:36:56.821Z,59.80
2018-07-17T23:38:58.778Z,59.80
2018-07-17T23:41:00.739Z,60.40
2018-07-17T23:43:02.740Z,59.80
2018-07-17T23:45:04.697Z,59.80
2018-07-17T23:47:06.656Z,59.80
2018-07-17T23:49:08.636Z,59.80
2018-07-17T23:51:10.593Z,59.80
2018-07-17T23:53:12.537Z,59.80
2018-07-17T23:55:14.509Z,59.90
2018-07-17T23:57:16.483Z,59.80
2018-07-17T23:59:18.448Z,59.80
